createdAt,value
2017-08-25T00:06:23.995Z,32.9
2017-08-25T00:16:38.338Z,30.4
2017-08-25T00:26:53.943Z,26.1
2017-08-25T00:37:08.153Z,25
2017-08-25T00:47:23.272Z,22.4
2017-08-25T00:57:37.185Z,21.7
2017-08-25T01:07:51.009Z,21.6
2017-08-25T01:18:05.771Z,20.5
2017-08-25T01:28:21.293Z,20.4
2017-08-25T01:38:36.148Z,19.9
2017-08-25T01:48:49.992Z,19.5
2017-08-25T01:59:04.543Z,19.6
2017-08-25T02:09:19.361Z,19.3
2017-08-25T02:19:33.098Z,19.2
2017-08-25T02:29:46.896Z,19.3
2017-08-25T02:40:01.136Z,19.5
2017-08-25T02:50:14.882Z,19.6
2017-08-25T03:00:28.744Z,19.2
2017-08-25T03:10:42.700Z,19.2
2017-08-25T03:20:58.229Z,19.2
2017-08-25T03:31:12.688Z,18.9
2017-08-25T03:41:27.119Z,19.2
2017-08-25T03:51:41.992Z,19.3
2017-08-25T04:01:57.146Z,18.8
2017-08-25T04:12:11.131Z,18.9
2017-08-25T04:22:25.639Z,18.9
2017-08-25T04:32:39.640Z,19.2
2017-08-25T04:42:54.270Z,18.8
2017-08-25T04:53:08.597Z,18.8
2017-08-25T05:03:24.075Z,18.8
2017-08-25T05:13:38.461Z,18.4
2017-08-25T05:23:52.671Z,18.2
2017-08-25T05:34:07.538Z,17.9
2017-08-25T05:44:21.818Z,17.9
2017-08-25T05:54:36.593Z,17.9
2017-08-25T06:04:51.363Z,17.8
2017-08-25T06:15:06.019Z,17.6
2017-08-25T06:25:20.193Z,16.8
2017-08-25T06:35:35.919Z,16.8
2017-08-25T06:45:50.846Z,17.1
2017-08-25T06:56:06.542Z,17.1
2017-08-25T07:06:21.362Z,20.1
2017-08-25T07:16:35.906Z,25.4
2017-08-25T07:26:50.635Z,40
2017-08-25T07:37:05.392Z,63.6
2017-08-25T07:47:20.284Z,94.4
2017-08-25T07:57:35.723Z,100
2017-08-25T08:07:51.045Z,100
2017-08-25T08:18:06.106Z,99
2017-08-25T08:28:21.093Z,96.8
2017-08-25T08:38:35.173Z,95.4
2017-08-25T08:48:49.309Z,92.1
2017-08-25T08:59:04.042Z,90.6
2017-08-25T09:09:18.504Z,88.2
2017-08-25T09:19:32.717Z,85.1
2017-08-25T09:29:47.160Z,84.7
2017-08-25T09:40:01.642Z,85.1
2017-08-25T09:50:15.695Z,85.4
2017-08-25T10:00:30.756Z,84.4
2017-08-25T10:10:45.666Z,82.7
2017-08-25T10:20:59.634Z,79.4
2017-08-25T10:31:14.949Z,76.8
2017-08-25T10:41:29.847Z,76.6
2017-08-25T10:51:43.974Z,73.7
2017-08-25T11:01:59.155Z,73
2017-08-25T11:12:14.825Z,72.4
2017-08-25T11:22:28.899Z,72.2
2017-08-25T11:32:44.274Z,72.3
2017-08-25T11:42:58.424Z,72.4
2017-08-25T11:53:13.107Z,70.8
2017-08-25T12:03:28.248Z,69.8
2017-08-25T12:13:44.077Z,71.1
2017-08-25T12:23:59.953Z,70.4
2017-08-25T12:34:15.334Z,71.5
2017-08-25T12:44:31.109Z,70.6
2017-08-25T12:54:46.774Z,70.3
2017-08-25T13:05:01.514Z,68.8
2017-08-25T13:15:17.068Z,69
2017-08-25T13:25:31.793Z,68.5
2017-08-25T13:35:46.484Z,69.2
2017-08-25T13:46:00.888Z,68.5
2017-08-25T13:56:15.845Z,69.5
2017-08-25T14:06:30.915Z,70.8
2017-08-25T14:16:46.180Z,69.7
2017-08-25T14:27:01.106Z,70.3
2017-08-25T14:37:16.362Z,73.2
2017-08-25T14:47:30.709Z,74.3
2017-08-25T14:57:45.247Z,75.3
2017-08-25T15:07:59.695Z,73.1
2017-08-25T15:18:14.037Z,73.6
2017-08-25T15:28:29.540Z,73
2017-08-25T15:38:44.942Z,75.7
2017-08-25T15:48:59.016Z,76
2017-08-25T15:59:14.828Z,75.2
2017-08-25T16:09:30.354Z,77.7
2017-08-25T16:19:44.280Z,76.6
2017-08-25T16:29:58.500Z,77.4
2017-08-25T16:40:13.586Z,77.6
2017-08-25T16:50:28.169Z,78.1
2017-08-25T17:00:43.852Z,78.5
2017-08-25T17:10:57.777Z,79
2017-08-25T17:21:12.802Z,80.4
2017-08-25T17:31:26.949Z,82.4
2017-08-25T17:41:41.204Z,83.5
2017-08-25T17:51:56.851Z,85.2
2017-08-25T18:02:12.497Z,86.5
2017-08-25T18:12:27.728Z,88
2017-08-25T18:22:42.201Z,88.5
2017-08-25T18:32:56.666Z,88.8
2017-08-25T18:43:11.776Z,89.8
2017-08-25T18:53:26.693Z,90.4
2017-08-25T19:03:41.876Z,90.7
2017-08-25T19:13:57.639Z,91.3
2017-08-25T19:24:12.043Z,92.3
2017-08-25T19:34:27.595Z,92.1
2017-08-25T19:44:42.670Z,90.9
2017-08-25T19:54:57.665Z,90.9
2017-08-25T20:05:13.209Z,91.2
2017-08-25T20:15:27.853Z,92.8
2017-08-25T20:25:42.093Z,93.5
2017-08-25T20:35:57.553Z,94.3
2017-08-25T20:46:11.657Z,94.1
2017-08-25T20:56:27.341Z,94
2017-08-25T21:06:41.095Z,94.2
2017-08-25T21:16:56.801Z,93.9
2017-08-25T21:27:11.930Z,93.8
2017-08-25T21:37:27.234Z,93.6
2017-08-25T21:47:42.838Z,93.8
2017-08-25T21:57:58.387Z,93.7
2017-08-25T22:08:14.190Z,93.6
2017-08-25T22:18:28.915Z,93.7
2017-08-25T22:28:44.416Z,93.2
2017-08-25T22:38:58.558Z,93
2017-08-25T22:49:14.204Z,93.9
2017-08-25T22:59:29.696Z,94.3
2017-08-25T23:09:44.717Z,94.5
2017-08-25T23:20:00.255Z,94.6
2017-08-25T23:30:14.546Z,95.4
2017-08-25T23:40:28.394Z,95.2
2017-08-25T23:50:43.395Z,95.2
